sensor_id;sensor_type;location;lat;lon;timestamp;pressure;altitude;pressure_sealevel;temperature;humidity
34674;BME280;20879;55.668;37.858;2023-08-07T00:01:02;99796.25;;;22.30;80.65
34674;BME280;20879;55.668;37.858;2023-08-07T00:03:35;99786.09;;;22.24;80.09
34674;BME280;20879;55.668;37.858;2023-08-07T00:06:06;99758.94;;;22.08;80.32
34674;BME280;20879;55.668;37.858;2023-08-07T00:08:42;99775.34;;;22.13;80.39
34674;BME280;20879;55.668;37.858;2023-08-07T00:11:20;99774.41;;;22.14;80.73
34674;BME280;20879;55.668;37.858;2023-08-07T00:13:58;99777.31;;;22.09;80.77
34674;BME280;20879;55.668;37.858;2023-08-07T00:16:28;99781.09;;;22.05;80.49
34674;BME280;20879;55.668;37.858;2023-08-07T00:19:06;99779.69;;;21.99;80.97
34674;BME280;20879;55.668;37.858;2023-08-07T00:21:38;99786.00;;;21.97;81.35
34674;BME280;20879;55.668;37.858;2023-08-07T00:24:09;99781.84;;;21.93;80.79
34674;BME280;20879;55.668;37.858;2023-08-07T00:26:38;99781.56;;;21.97;80.96
34674;BME280;20879;55.668;37.858;2023-08-07T00:29:08;99790.13;;;22.01;80.51
34674;BME280;20879;55.668;37.858;2023-08-07T00:31:38;99784.97;;;21.99;80.39
34674;BME280;20879;55.668;37.858;2023-08-07T00:34:10;99784.88;;;22.01;80.55
34674;BME280;20879;55.668;37.858;2023-08-07T00:36:40;99783.34;;;21.97;80.30
34674;BME280;20879;55.668;37.858;2023-08-07T00:39:17;99776.56;;;21.93;80.41
34674;BME280;20879;55.668;37.858;2023-08-07T00:41:47;99778.47;;;21.91;81.05
34674;BME280;20879;55.668;37.858;2023-08-07T00:44:17;99783.84;;;21.89;80.57
34674;BME280;20879;55.668;37.858;2023-08-07T00:46:49;99775.16;;;21.87;81.11
34674;BME280;20879;55.668;37.858;2023-08-07T00:49:21;99781.19;;;21.89;80.77
34674;BME280;20879;55.668;37.858;2023-08-07T00:51:51;99780.91;;;21.94;80.64
34674;BME280;20879;55.668;37.858;2023-08-07T00:54:21;99781.56;;;21.83;80.70
34674;BME280;20879;55.668;37.858;2023-08-07T00:56:52;99770.38;;;21.79;81.15
34674;BME280;20879;55.668;37.858;2023-08-07T00:59:23;99774.59;;;21.82;81.00
34674;BME280;20879;55.668;37.858;2023-08-07T01:01:55;99772.72;;;21.84;80.54
34674;BME280;20879;55.668;37.858;2023-08-07T01:04:30;99765.00;;;21.81;80.87
34674;BME280;20879;55.668;37.858;2023-08-07T01:06:59;99765.69;;;21.85;80.92
34674;BME280;20879;55.668;37.858;2023-08-07T01:09:29;99765.59;;;21.86;80.30
34674;BME280;20879;55.668;37.858;2023-08-07T01:12:01;99759.44;;;21.86;80.36
34674;BME280;20879;55.668;37.858;2023-08-07T01:14:37;99765.69;;;21.85;80.80
34674;BME280;20879;55.668;37.858;2023-08-07T01:17:09;99755.19;;;21.83;80.19
34674;BME280;20879;55.668;37.858;2023-08-07T01:19:41;99753.72;;;21.79;81.03
34674;BME280;20879;55.668;37.858;2023-08-07T01:22:19;99756.81;;;21.71;81.29
34674;BME280;20879;55.668;37.858;2023-08-07T01:24:49;99756.34;;;21.64;82.28
34674;BME280;20879;55.668;37.858;2023-08-07T01:27:29;99755.75;;;21.59;82.34
34674;BME280;20879;55.668;37.858;2023-08-07T01:30:02;99753.66;;;21.50;83.31
34674;BME280;20879;55.668;37.858;2023-08-07T01:32:40;99752.69;;;21.37;84.22
34674;BME280;20879;55.668;37.858;2023-08-07T01:35:11;99747.63;;;21.34;84.36
34674;BME280;20879;55.668;37.858;2023-08-07T01:37:42;99744.41;;;21.28;84.81
34674;BME280;20879;55.668;37.858;2023-08-07T01:40:13;99744.75;;;21.22;85.92
34674;BME280;20879;55.668;37.858;2023-08-07T01:42:43;99740.06;;;21.13;86.08
34674;BME280;20879;55.668;37.858;2023-08-07T01:45:21;99742.50;;;21.16;84.93
34674;BME280;20879;55.668;37.858;2023-08-07T01:47:51;99742.41;;;21.18;85.62
34674;BME280;20879;55.668;37.858;2023-08-07T01:50:23;99744.84;;;21.21;85.64
34674;BME280;20879;55.668;37.858;2023-08-07T01:52:56;99739.88;;;21.16;85.29
34674;BME280;20879;55.668;37.858;2023-08-07T01:55:26;99743.03;;;21.07;86.34
34674;BME280;20879;55.668;37.858;2023-08-07T01:57:58;99746.53;;;21.07;86.23
34674;BME280;20879;55.668;37.858;2023-08-07T02:00:32;99740.47;;;21.05;85.94
34674;BME280;20879;55.668;37.858;2023-08-07T02:03:01;99743.78;;;21.09;85.88
34674;BME280;20879;55.668;37.858;2023-08-07T02:05:32;99744.81;;;21.06;86.27
34674;BME280;20879;55.668;37.858;2023-08-07T02:08:10;99742.97;;;21.08;85.57
34674;BME280;20879;55.668;37.858;2023-08-07T02:10:41;99740.88;;;21.13;85.39
34674;BME280;20879;55.668;37.858;2023-08-07T02:13:12;99741.28;;;21.22;85.36
34674;BME280;20879;55.668;37.858;2023-08-07T02:15:44;99739.13;;;21.28;84.55
34674;BME280;20879;55.668;37.858;2023-08-07T02:18:16;99740.00;;;21.29;84.67
34674;BME280;20879;55.668;37.858;2023-08-07T02:20:45;99741.03;;;21.26;84.88
34674;BME280;20879;55.668;37.858;2023-08-07T02:23:19;99746.94;;;21.30;84.22
34674;BME280;20879;55.668;37.858;2023-08-07T02:25:48;99746.47;;;21.23;84.76
34674;BME280;20879;55.668;37.858;2023-08-07T02:28:18;99748.44;;;21.34;84.52
34674;BME280;20879;55.668;37.858;2023-08-07T02:30:51;99746.88;;;21.46;83.81
34674;BME280;20879;55.668;37.858;2023-08-07T02:33:26;99741.00;;;21.57;83.30
34674;BME280;20879;55.668;37.858;2023-08-07T02:35:58;99740.16;;;21.71;82.96
34674;BME280;20879;55.668;37.858;2023-08-07T02:38:29;99737.81;;;21.66;82.34
34674;BME280;20879;55.668;37.858;2023-08-07T02:41:05;99737.31;;;21.59;82.60
34674;BME280;20879;55.668;37.858;2023-08-07T02:43:34;99739.03;;;21.60;82.80
34674;BME280;20879;55.668;37.858;2023-08-07T02:46:03;99731.75;;;21.64;82.60
34674;BME280;20879;55.668;37.858;2023-08-07T02:48:38;99738.34;;;21.71;82.21
34674;BME280;20879;55.668;37.858;2023-08-07T02:51:08;99735.63;;;21.87;81.47
34674;BME280;20879;55.668;37.858;2023-08-07T02:53:44;99738.44;;;21.98;81.00
34674;BME280;20879;55.668;37.858;2023-08-07T02:56:16;99738.72;;;22.08;80.55
34674;BME280;20879;55.668;37.858;2023-08-07T02:58:52;99742.88;;;22.12;79.25
34674;BME280;20879;55.668;37.858;2023-08-07T03:01:25;99742.38;;;22.20;79.28
34674;BME280;20879;55.668;37.858;2023-08-07T03:04:01;99733.97;;;22.28;78.42
34674;BME280;20879;55.668;37.858;2023-08-07T03:06:37;99741.63;;;22.32;78.47
34674;BME280;20879;55.668;37.858;2023-08-07T03:09:09;99738.22;;;22.30;78.88
34674;BME280;20879;55.668;37.858;2023-08-07T03:11:38;99735.41;;;22.33;78.13
34674;BME280;20879;55.668;37.858;2023-08-07T03:14:08;99745.03;;;22.34;77.62
34674;BME280;20879;55.668;37.858;2023-08-07T03:16:37;99743.84;;;22.39;78.20
34674;BME280;20879;55.668;37.858;2023-08-07T03:19:09;99740.66;;;22.48;77.63
34674;BME280;20879;55.668;37.858;2023-08-07T03:21:40;99731.22;;;22.44;76.25
34674;BME280;20879;55.668;37.858;2023-08-07T03:24:13;99732.72;;;22.48;77.15
34674;BME280;20879;55.668;37.858;2023-08-07T03:26:43;99736.69;;;22.55;76.75
34674;BME280;20879;55.668;37.858;2023-08-07T03:29:22;99726.34;;;22.65;75.93
34674;BME280;20879;55.668;37.858;2023-08-07T03:31:52;99729.03;;;22.78;76.16
34674;BME280;20879;55.668;37.858;2023-08-07T03:34:23;99732.75;;;22.88;75.71
34674;BME280;20879;55.668;37.858;2023-08-07T03:36:55;99728.75;;;22.95;75.09
34674;BME280;20879;55.668;37.858;2023-08-07T03:39:31;99733.53;;;23.03;74.65
34674;BME280;20879;55.668;37.858;2023-08-07T03:42:01;99731.72;;;22.91;73.41
34674;BME280;20879;55.668;37.858;2023-08-07T03:44:35;99726.00;;;22.97;74.10
34674;BME280;20879;55.668;37.858;2023-08-07T03:47:11;99729.19;;;22.89;73.56
34674;BME280;20879;55.668;37.858;2023-08-07T03:49:47;99725.69;;;23.01;74.37
34674;BME280;20879;55.668;37.858;2023-08-07T03:52:21;99737.47;;;23.10;73.34
34674;BME280;20879;55.668;37.858;2023-08-07T03:54:53;99733.91;;;23.24;72.47
34674;BME280;20879;55.668;37.858;2023-08-07T03:57:23;99736.34;;;23.27;71.89
34674;BME280;20879;55.668;37.858;2023-08-07T03:59:54;99735.59;;;23.38;71.18
34674;BME280;20879;55.668;37.858;2023-08-07T04:02:38;99730.88;;;23.56;71.65
34674;BME280;20879;55.668;37.858;2023-08-07T04:05:13;99732.44;;;23.71;70.28
34674;BME280;20879;55.668;37.858;2023-08-07T04:07:43;99733.25;;;23.85;70.07
34674;BME280;20879;55.668;37.858;2023-08-07T04:10:26;99728.31;;;23.93;69.42
34674;BME280;20879;55.668;37.858;2023-08-07T04:12:57;99728.94;;;23.97;68.45
34674;BME280;20879;55.668;37.858;2023-08-07T04:15:27;99730.41;;;24.01;67.98
34674;BME280;20879;55.668;37.858;2023-08-07T04:18:03;99723.75;;;24.08;67.84
34674;BME280;20879;55.668;37.858;2023-08-07T04:20:40;99727.41;;;24.18;67.46
34674;BME280;20879;55.668;37.858;2023-08-07T04:23:10;99723.59;;;24.22;67.07
34674;BME280;20879;55.668;37.858;2023-08-07T04:25:46;99730.13;;;24.30;66.63
34674;BME280;20879;55.668;37.858;2023-08-07T04:28:21;99726.25;;;24.47;67.14
34674;BME280;20879;55.668;37.858;2023-08-07T04:30:56;99725.56;;;24.69;65.95
34674;BME280;20879;55.668;37.858;2023-08-07T04:33:26;99725.16;;;24.86;65.67
34674;BME280;20879;55.668;37.858;2023-08-07T04:36:00;99730.59;;;24.96;66.13
34674;BME280;20879;55.668;37.858;2023-08-07T04:38:29;99730.94;;;24.91;64.27
34674;BME280;20879;55.668;37.858;2023-08-07T04:41:03;99727.00;;;24.97;65.41
34674;BME280;20879;55.668;37.858;2023-08-07T04:43:34;99727.59;;;25.01;64.48
34674;BME280;20879;55.668;37.858;2023-08-07T04:46:05;99726.28;;;25.06;63.67
34674;BME280;20879;55.668;37.858;2023-08-07T04:48:37;99722.84;;;25.17;63.94
34674;BME280;20879;55.668;37.858;2023-08-07T04:51:25;99723.44;;;25.21;64.71
34674;BME280;20879;55.668;37.858;2023-08-07T04:54:02;99722.59;;;25.20;64.49
34674;BME280;20879;55.668;37.858;2023-08-07T04:56:35;99726.09;;;25.21;64.68
34674;BME280;20879;55.668;37.858;2023-08-07T04:59:08;99714.50;;;25.10;63.61
34674;BME280;20879;55.668;37.858;2023-08-07T05:01:38;99712.56;;;25.12;63.60
34674;BME280;20879;55.668;37.858;2023-08-07T05:04:07;99712.91;;;25.08;62.09
34674;BME280;20879;55.668;37.858;2023-08-07T05:06:38;99711.63;;;25.13;62.84
34674;BME280;20879;55.668;37.858;2023-08-07T05:09:09;99711.38;;;25.17;62.31
34674;BME280;20879;55.668;37.858;2023-08-07T05:11:41;99706.19;;;25.15;62.20
34674;BME280;20879;55.668;37.858;2023-08-07T05:14:14;99710.19;;;25.21;62.53
34674;BME280;20879;55.668;37.858;2023-08-07T05:16:45;99708.75;;;25.28;62.73
34674;BME280;20879;55.668;37.858;2023-08-07T05:19:16;99700.09;;;25.26;62.22
34674;BME280;20879;55.668;37.858;2023-08-07T05:21:51;99705.84;;;25.20;60.88
34674;BME280;20879;55.668;37.858;2023-08-07T05:24:22;99702.13;;;25.22;60.80
34674;BME280;20879;55.668;37.858;2023-08-07T05:26:56;99706.34;;;25.25;60.95
34674;BME280;20879;55.668;37.858;2023-08-07T05:29:26;99711.88;;;25.22;60.18
34674;BME280;20879;55.668;37.858;2023-08-07T05:31:57;99696.13;;;25.32;61.01
34674;BME280;20879;55.668;37.858;2023-08-07T05:34:30;99690.13;;;25.41;60.41
34674;BME280;20879;55.668;37.858;2023-08-07T05:37:06;99694.69;;;25.39;60.33
34674;BME280;20879;55.668;37.858;2023-08-07T05:39:36;99701.63;;;25.28;59.15
34674;BME280;20879;55.668;37.858;2023-08-07T05:42:11;99694.34;;;25.32;59.89
34674;BME280;20879;55.668;37.858;2023-08-07T05:44:49;99695.06;;;25.34;59.80
34674;BME280;20879;55.668;37.858;2023-08-07T05:47:21;99697.00;;;25.32;58.72
34674;BME280;20879;55.668;37.858;2023-08-07T05:49:51;99688.56;;;25.38;59.21
34674;BME280;20879;55.668;37.858;2023-08-07T05:52:20;99688.56;;;25.38;58.80
34674;BME280;20879;55.668;37.858;2023-08-07T05:54:55;99674.72;;;25.46;58.30
34674;BME280;20879;55.668;37.858;2023-08-07T05:57:28;99674.00;;;25.55;57.15
34674;BME280;20879;55.668;37.858;2023-08-07T05:59:57;99674.00;;;25.55;58.01
34674;BME280;20879;55.668;37.858;2023-08-07T06:02:39;99667.25;;;25.62;57.95
34674;BME280;20879;55.668;37.858;2023-08-07T06:05:08;99680.28;;;25.66;57.19
34674;BME280;20879;55.668;37.858;2023-08-07T06:07:39;99673.41;;;25.74;57.41
34674;BME280;20879;55.668;37.858;2023-08-07T06:10:09;99667.84;;;25.77;56.11
34674;BME280;20879;55.668;37.858;2023-08-07T06:12:44;99673.50;;;25.84;56.22
34674;BME280;20879;55.668;37.858;2023-08-07T06:15:19;99664.81;;;25.82;55.30
34674;BME280;20879;55.668;37.858;2023-08-07T06:17:50;99668.78;;;25.88;57.06
34674;BME280;20879;55.668;37.858;2023-08-07T06:20:20;99661.78;;;25.87;55.26
34674;BME280;20879;55.668;37.858;2023-08-07T06:22:50;99661.53;;;25.90;56.01
34674;BME280;20879;55.668;37.858;2023-08-07T06:25:25;99662.03;;;26.06;56.83
34674;BME280;20879;55.668;37.858;2023-08-07T06:28:05;99663.81;;;26.17;56.12
34674;BME280;20879;55.668;37.858;2023-08-07T06:30:34;99659.19;;;26.30;55.80
34674;BME280;20879;55.668;37.858;2023-08-07T06:33:08;99661.84;;;26.30;54.15
34674;BME280;20879;55.668;37.858;2023-08-07T06:35:40;99655.66;;;26.41;55.09
34674;BME280;20879;55.668;37.858;2023-08-07T06:38:09;99648.28;;;26.45;52.30
34674;BME280;20879;55.668;37.858;2023-08-07T06:40:41;99662.75;;;26.52;52.66
34674;BME280;20879;55.668;37.858;2023-08-07T06:43:24;99653.59;;;26.66;52.03
34674;BME280;20879;55.668;37.858;2023-08-07T06:45:56;99653.59;;;26.77;53.53
34674;BME280;20879;55.668;37.858;2023-08-07T06:48:25;99656.25;;;26.77;53.11
34674;BME280;20879;55.668;37.858;2023-08-07T06:50:57;99650.00;;;26.67;51.56
34674;BME280;20879;55.668;37.858;2023-08-07T06:53:26;99650.94;;;26.77;52.82
34674;BME280;20879;55.668;37.858;2023-08-07T06:55:55;99651.47;;;26.71;51.26
34674;BME280;20879;55.668;37.858;2023-08-07T06:58:29;99647.94;;;26.71;51.99
34674;BME280;20879;55.668;37.858;2023-08-07T07:00:58;99638.00;;;26.84;52.03
34674;BME280;20879;55.668;37.858;2023-08-07T07:03:30;99643.03;;;26.87;50.28
34674;BME280;20879;55.668;37.858;2023-08-07T07:05:59;99639.03;;;26.93;50.50
34674;BME280;20879;55.668;37.858;2023-08-07T07:08:30;99642.13;;;26.98;51.81
34674;BME280;20879;55.668;37.858;2023-08-07T07:11:01;99634.22;;;27.08;51.50
34674;BME280;20879;55.668;37.858;2023-08-07T07:13:39;99634.09;;;27.19;51.83
34674;BME280;20879;55.668;37.858;2023-08-07T07:16:09;99633.34;;;27.28;51.50
34674;BME280;20879;55.668;37.858;2023-08-07T07:18:39;99633.66;;;27.35;51.34
34674;BME280;20879;55.668;37.858;2023-08-07T07:21:10;99627.16;;;27.28;49.70
34674;BME280;20879;55.668;37.858;2023-08-07T07:23:40;99633.19;;;27.30;50.24
34674;BME280;20879;55.668;37.858;2023-08-07T07:26:09;99624.25;;;27.31;49.79
34674;BME280;20879;55.668;37.858;2023-08-07T07:28:41;99627.84;;;27.41;50.94
34674;BME280;20879;55.668;37.858;2023-08-07T07:31:12;99632.06;;;27.53;50.16
34674;BME280;20879;55.668;37.858;2023-08-07T07:33:48;99631.50;;;27.50;49.42
34674;BME280;20879;55.668;37.858;2023-08-07T07:36:18;99620.59;;;27.53;49.42
34674;BME280;20879;55.668;37.858;2023-08-07T07:38:52;99630.63;;;27.49;49.30
34674;BME280;20879;55.668;37.858;2023-08-07T07:41:21;99635.41;;;27.55;49.78
34674;BME280;20879;55.668;37.858;2023-08-07T07:43:55;99622.28;;;27.64;49.07
34674;BME280;20879;55.668;37.858;2023-08-07T07:46:26;99632.38;;;27.70;49.22
34674;BME280;20879;55.668;37.858;2023-08-07T07:48:55;99617.44;;;27.69;48.35
34674;BME280;20879;55.668;37.858;2023-08-07T07:51:27;99614.03;;;27.67;47.91
34674;BME280;20879;55.668;37.858;2023-08-07T07:54:00;99605.38;;;27.65;48.74
34674;BME280;20879;55.668;37.858;2023-08-07T07:56:41;99605.09;;;27.68;49.22
34674;BME280;20879;55.668;37.858;2023-08-07T07:59:12;99606.88;;;27.58;48.18
34674;BME280;20879;55.668;37.858;2023-08-07T08:01:42;99615.56;;;27.50;47.34
34674;BME280;20879;55.668;37.858;2023-08-07T08:04:11;99606.56;;;27.41;47.58
34674;BME280;20879;55.668;37.858;2023-08-07T08:06:49;99607.66;;;27.38;47.20
34674;BME280;20879;55.668;37.858;2023-08-07T08:09:21;99598.59;;;27.41;47.69
34674;BME280;20879;55.668;37.858;2023-08-07T08:11:51;99599.19;;;27.54;47.99
34674;BME280;20879;55.668;37.858;2023-08-07T08:14:27;99599.19;;;27.64;47.52
34674;BME280;20879;55.668;37.858;2023-08-07T08:17:12;99610.56;;;27.76;47.47
34674;BME280;20879;55.668;37.858;2023-08-07T08:19:47;99602.16;;;27.71;47.21
34674;BME280;20879;55.668;37.858;2023-08-07T08:22:23;99594.31;;;27.69;47.04
34674;BME280;20879;55.668;37.858;2023-08-07T08:24:53;99567.97;;;27.57;45.43
34674;BME280;20879;55.668;37.858;2023-08-07T08:27:27;99592.34;;;27.62;45.83
34674;BME280;20879;55.668;37.858;2023-08-07T08:29:59;99597.16;;;27.78;46.33
34674;BME280;20879;55.668;37.858;2023-08-07T08:32:34;99587.38;;;27.88;45.40
34674;BME280;20879;55.668;37.858;2023-08-07T08:35:14;99591.25;;;27.94;45.96
34674;BME280;20879;55.668;37.858;2023-08-07T08:37:46;99585.44;;;28.00;46.32
34674;BME280;20879;55.668;37.858;2023-08-07T08:40:18;99578.16;;;28.02;45.27
34674;BME280;20879;55.668;37.858;2023-08-07T08:42:48;99569.72;;;27.97;45.13
34674;BME280;20879;55.668;37.858;2023-08-07T08:45:25;99582.91;;;27.98;46.14
34674;BME280;20879;55.668;37.858;2023-08-07T08:48:05;99572.13;;;28.00;45.90
34674;BME280;20879;55.668;37.858;2023-08-07T08:50:46;99572.00;;;28.01;46.17
34674;BME280;20879;55.668;37.858;2023-08-07T08:53:20;99582.47;;;28.13;45.08
34674;BME280;20879;55.668;37.858;2023-08-07T08:55:58;99569.75;;;28.16;45.62
34674;BME280;20879;55.668;37.858;2023-08-07T08:58:31;99572.56;;;28.24;45.65
34674;BME280;20879;55.668;37.858;2023-08-07T09:01:02;99573.09;;;28.28;43.28
34674;BME280;20879;55.668;37.858;2023-08-07T09:03:32;99548.47;;;28.16;43.35
34674;BME280;20879;55.668;37.858;2023-08-07T09:06:02;99556.31;;;28.28;44.42
34674;BME280;20879;55.668;37.858;2023-08-07T09:08:33;99536.28;;;28.33;43.29
34674;BME280;20879;55.668;37.858;2023-08-07T09:11:03;99561.47;;;28.39;44.50
34674;BME280;20879;55.668;37.858;2023-08-07T09:13:45;99566.94;;;28.37;43.91
34674;BME280;20879;55.668;37.858;2023-08-07T09:16:19;99553.31;;;28.40;44.73
34674;BME280;20879;55.668;37.858;2023-08-07T09:18:49;99548.44;;;28.36;44.11
34674;BME280;20879;55.668;37.858;2023-08-07T09:21:19;99544.50;;;28.40;44.04
34674;BME280;20879;55.668;37.858;2023-08-07T09:23:49;99532.03;;;28.40;43.96
34674;BME280;20879;55.668;37.858;2023-08-07T09:26:21;99545.91;;;28.44;44.15
34674;BME280;20879;55.668;37.858;2023-08-07T09:28:54;99544.34;;;28.51;43.87
34674;BME280;20879;55.668;37.858;2023-08-07T09:31:31;99537.22;;;28.62;43.34
34674;BME280;20879;55.668;37.858;2023-08-07T09:34:03;99540.97;;;28.69;43.92
34674;BME280;20879;55.668;37.858;2023-08-07T09:36:33;99537.75;;;28.75;44.31
34674;BME280;20879;55.668;37.858;2023-08-07T09:39:03;99537.19;;;28.71;43.57
34674;BME280;20879;55.668;37.858;2023-08-07T09:41:34;99528.94;;;28.65;43.46
34674;BME280;20879;55.668;37.858;2023-08-07T09:44:05;99530.47;;;28.67;43.29
34674;BME280;20879;55.668;37.858;2023-08-07T09:46:43;99525.16;;;28.67;43.42
34674;BME280;20879;55.668;37.858;2023-08-07T09:49:15;99531.16;;;28.69;44.02
34674;BME280;20879;55.668;37.858;2023-08-07T09:51:52;99525.69;;;28.71;43.97
34674;BME280;20879;55.668;37.858;2023-08-07T09:54:22;99514.59;;;28.75;43.63
34674;BME280;20879;55.668;37.858;2023-08-07T09:56:51;99521.16;;;28.81;43.60
34674;BME280;20879;55.668;37.858;2023-08-07T09:59:25;99516.72;;;28.72;43.53
34674;BME280;20879;55.668;37.858;2023-08-07T10:02:04;99510.13;;;28.76;44.41
34674;BME280;20879;55.668;37.858;2023-08-07T10:04:35;99513.75;;;28.85;44.33
34674;BME280;20879;55.668;37.858;2023-08-07T10:07:04;99503.00;;;28.94;44.54
34674;BME280;20879;55.668;37.858;2023-08-07T10:09:33;99502.84;;;29.06;43.49
34674;BME280;20879;55.668;37.858;2023-08-07T10:12:02;99496.81;;;29.04;42.98
34674;BME280;20879;55.668;37.858;2023-08-07T10:14:32;99508.03;;;28.98;43.09
34674;BME280;20879;55.668;37.858;2023-08-07T10:17:04;99502.66;;;28.80;42.15
34674;BME280;20879;55.668;37.858;2023-08-07T10:19:34;99497.94;;;28.73;42.78
34674;BME280;20879;55.668;37.858;2023-08-07T10:22:06;99494.81;;;28.78;43.33
34674;BME280;20879;55.668;37.858;2023-08-07T10:24:37;99500.72;;;28.82;43.06
34674;BME280;20879;55.668;37.858;2023-08-07T10:27:09;99491.31;;;28.77;42.92
34674;BME280;20879;55.668;37.858;2023-08-07T10:29:41;99495.63;;;28.88;42.53
34674;BME280;20879;55.668;37.858;2023-08-07T10:32:13;99503.13;;;29.03;41.67
34674;BME280;20879;55.668;37.858;2023-08-07T10:34:46;99494.38;;;29.10;42.41
34674;BME280;20879;55.668;37.858;2023-08-07T10:37:32;99490.59;;;29.13;41.98
34674;BME280;20879;55.668;37.858;2023-08-07T10:40:14;99486.38;;;29.10;41.76
34674;BME280;20879;55.668;37.858;2023-08-07T10:42:51;99482.59;;;29.13;41.55
34674;BME280;20879;55.668;37.858;2023-08-07T10:45:23;99473.03;;;29.20;42.15
34674;BME280;20879;55.668;37.858;2023-08-07T10:48:04;99480.28;;;29.28;42.22
34674;BME280;20879;55.668;37.858;2023-08-07T10:50:51;99463.16;;;29.31;41.79
34674;BME280;20879;55.668;37.858;2023-08-07T10:53:32;99466.50;;;29.33;41.24
34674;BME280;20879;55.668;37.858;2023-08-07T10:56:01;99467.13;;;29.26;40.88
34674;BME280;20879;55.668;37.858;2023-08-07T10:58:32;99455.78;;;29.24;41.40
34674;BME280;20879;55.668;37.858;2023-08-07T11:01:19;99461.09;;;29.24;42.02
34674;BME280;20879;55.668;37.858;2023-08-07T11:03:52;99444.88;;;29.36;41.86
34674;BME280;20879;55.668;37.858;2023-08-07T11:06:24;99445.78;;;29.44;41.31
34674;BME280;20879;55.668;37.858;2023-08-07T11:08:54;99440.59;;;29.43;41.69
34674;BME280;20879;55.668;37.858;2023-08-07T11:11:24;99438.41;;;29.38;42.43
34674;BME280;20879;55.668;37.858;2023-08-07T11:14:03;99433.00;;;29.48;42.30
34674;BME280;20879;55.668;37.858;2023-08-07T11:16:38;99432.94;;;29.58;41.85
34674;BME280;20879;55.668;37.858;2023-08-07T11:19:09;99426.50;;;29.33;41.91
34674;BME280;20879;55.668;37.858;2023-08-07T11:21:39;99434.75;;;29.39;42.00
34674;BME280;20879;55.668;37.858;2023-08-07T11:24:12;99429.63;;;29.46;42.24
34674;BME280;20879;55.668;37.858;2023-08-07T11:26:48;99425.38;;;29.35;42.41
34674;BME280;20879;55.668;37.858;2023-08-07T11:29:17;99432.84;;;29.32;41.80
34674;BME280;20879;55.668;37.858;2023-08-07T11:31:55;99419.81;;;29.46;41.66
34674;BME280;20879;55.668;37.858;2023-08-07T11:34:26;99423.25;;;29.39;41.46
34674;BME280;20879;55.668;37.858;2023-08-07T11:36:56;99430.66;;;29.45;41.77
34674;BME280;20879;55.668;37.858;2023-08-07T11:39:28;99430.25;;;29.40;42.13
34674;BME280;20879;55.668;37.858;2023-08-07T11:41:59;99429.94;;;29.43;41.91
34674;BME280;20879;55.668;37.858;2023-08-07T11:44:32;99423.72;;;29.52;42.36
34674;BME280;20879;55.668;37.858;2023-08-07T11:47:01;99412.03;;;29.53;41.28
34674;BME280;20879;55.668;37.858;2023-08-07T11:49:33;99403.59;;;29.40;41.63
34674;BME280;20879;55.668;37.858;2023-08-07T11:52:11;99411.13;;;29.44;42.57
34674;BME280;20879;55.668;37.858;2023-08-07T11:54:41;99409.38;;;29.53;42.04
34674;BME280;20879;55.668;37.858;2023-08-07T11:57:19;99410.00;;;29.65;42.34
34674;BME280;20879;55.668;37.858;2023-08-07T12:00:13;99402.44;;;29.60;42.00
34674;BME280;20879;55.668;37.858;2023-08-07T12:02:42;99403.03;;;29.72;42.22
34674;BME280;20879;55.668;37.858;2023-08-07T12:05:25;99380.78;;;29.81;41.54
34674;BME280;20879;55.668;37.858;2023-08-07T12:07:55;99387.88;;;29.73;41.42
34674;BME280;20879;55.668;37.858;2023-08-07T12:10:24;99385.56;;;29.78;42.06
34674;BME280;20879;55.668;37.858;2023-08-07T12:12:58;99378.41;;;29.78;41.64
34674;BME280;20879;55.668;37.858;2023-08-07T12:15:37;99374.69;;;29.89;42.29
34674;BME280;20879;55.668;37.858;2023-08-07T12:18:07;99373.38;;;29.93;42.26
34674;BME280;20879;55.668;37.858;2023-08-07T12:20:41;99369.41;;;29.97;42.31
34674;BME280;20879;55.668;37.858;2023-08-07T12:23:13;99369.50;;;29.88;41.98
34674;BME280;20879;55.668;37.858;2023-08-07T12:25:43;99374.00;;;29.87;41.24
34674;BME280;20879;55.668;37.858;2023-08-07T12:28:12;99373.38;;;29.93;41.82
34674;BME280;20879;55.668;37.858;2023-08-07T12:30:42;99372.25;;;30.04;41.82
34674;BME280;20879;55.668;37.858;2023-08-07T12:33:15;99365.28;;;30.03;40.70
34674;BME280;20879;55.668;37.858;2023-08-07T12:35:46;99360.03;;;29.93;40.91
34674;BME280;20879;55.668;37.858;2023-08-07T12:38:15;99355.75;;;30.01;41.13
34674;BME280;20879;55.668;37.858;2023-08-07T12:40:45;99363.09;;;30.07;41.27
34674;BME280;20879;55.668;37.858;2023-08-07T12:49:55;99353.28;;;29.63;41.51
34674;BME280;20879;55.668;37.858;2023-08-07T12:52:33;99345.28;;;29.63;42.04
34674;BME280;20879;55.668;37.858;2023-08-07T12:55:05;99333.78;;;29.62;41.54
34674;BME280;20879;55.668;37.858;2023-08-07T12:57:36;99331.28;;;29.61;42.16
34674;BME280;20879;55.668;37.858;2023-08-07T13:00:11;99342.88;;;29.78;41.77
34674;BME280;20879;55.668;37.858;2023-08-07T13:02:42;99333.22;;;29.77;41.91
34674;BME280;20879;55.668;37.858;2023-08-07T13:05:22;99327.88;;;29.77;41.62
34674;BME280;20879;55.668;37.858;2023-08-07T13:07:52;99323.31;;;29.87;41.77
34674;BME280;20879;55.668;37.858;2023-08-07T13:10:25;99319.13;;;29.93;42.08
34674;BME280;20879;55.668;37.858;2023-08-07T13:12:58;99321.16;;;29.91;42.09
34674;BME280;20879;55.668;37.858;2023-08-07T13:15:29;99297.59;;;29.86;42.21
34674;BME280;20879;55.668;37.858;2023-08-07T13:18:05;99303.59;;;29.88;41.84
34674;BME280;20879;55.668;37.858;2023-08-07T13:20:37;99304.94;;;29.84;41.92
34674;BME280;20879;55.668;37.858;2023-08-07T13:23:08;99307.28;;;29.87;42.18
34674;BME280;20879;55.668;37.858;2023-08-07T13:25:40;99291.72;;;29.83;41.83